Time;durP1;ratioP1;P1;durP2;ratioP2;P2;SDS_P1;SDS_P2;PMS_P1;PMS_P2;Temp;Humidity;BMP_temperature;BMP_pressure;BME280_temperature;BME280_humidity;BME280_pressure;Samples;Min_cycle;Max_cycle;Signal;HPM_P1;HPM_P2
2021/03/08 00:01:52;;;;;;;13.25;8.85;;;;;;;1.59;62.05;98903.95;1744221;81;21144;-63
2021/03/08 00:04:21;;;;;;;12.65;8.28;;;;;;;1.59;62.04;98907.36;1711476;83;21096;-64
2021/03/08 00:06:48;;;;;;;11.45;8.05;;;;;;;1.59;62.11;98900.95;1744373;81;21251;-63
2021/03/08 00:09:16;;;;;;;10.98;8.10;;;;;;;1.58;62.17;98907.38;1744387;82;21084;-63
2021/03/08 00:11:44;;;;;;;22.98;9.73;;;;;;;1.57;62.14;98900.55;1711427;83;21128;-63
2021/03/08 00:14:13;;;;;;;10.80;8.85;;;;;;;1.56;62.26;98903.55;1744415;82;21568;-63
2021/03/08 00:16:43;;;;;;;16.62;9.28;;;;;;;1.55;62.30;98891.60;1744440;81;21144;-63
2021/03/08 00:19:12;;;;;;;14.45;8.98;;;;;;;1.56;62.49;98898.42;1744321;82;21156;-64
2021/03/08 00:21:40;;;;;;;11.05;8.13;;;;;;;1.55;62.53;98886.91;1744350;82;21535;-63
2021/03/08 00:24:10;;;;;;;15.20;8.08;;;;;;;1.52;62.57;98886.52;1744402;82;21481;-64
2021/03/08 00:26:37;;;;;;;17.85;8.55;;;;;;;1.48;62.71;98878.89;1744388;81;21069;-63
2021/03/08 00:29:08;;;;;;;10.88;8.60;;;;;;;1.43;62.83;98869.13;1709846;83;21076;-63
2021/03/08 00:31:36;;;;;;;12.43;8.70;;;;;;;1.42;62.98;98869.56;1744474;82;21388;-64
2021/03/08 00:34:04;;;;;;;11.55;8.15;;;;;;;1.42;63.15;98863.16;1744394;82;21591;-64
2021/03/08 00:36:31;;;;;;;10.63;8.33;;;;;;;1.43;63.13;98859.73;1711418;83;21180;-63
2021/03/08 00:38:59;;;;;;;9.05;7.47;;;;;;;1.45;63.19;98863.55;1744386;82;21501;-63
2021/03/08 00:41:26;;;;;;;11.55;7.62;;;;;;;1.45;63.26;98855.44;1744407;82;21061;-63
2021/03/08 00:43:55;;;;;;;10.45;7.95;;;;;;;1.46;63.23;98855.00;1711455;83;21166;-63
2021/03/08 00:46:22;;;;;;;11.80;7.97;;;;;;;1.45;63.22;98851.59;1751245;81;21117;-63
2021/03/08 00:48:50;;;;;;;11.63;8.98;;;;;;;1.44;63.32;98847.33;1758093;81;21061;-63
2021/03/08 00:51:19;;;;;;;11.25;7.97;;;;;;;1.43;63.34;98846.07;1758027;81;21509;-63
2021/03/08 00:53:47;;;;;;;10.00;7.55;;;;;;;1.42;63.34;98845.66;1758020;81;21080;-64
2021/03/08 00:56:15;;;;;;;10.20;7.25;;;;;;;1.37;63.28;98838.91;1757958;80;21365;-64
2021/03/08 00:58:42;;;;;;;11.45;7.83;;;;;;;1.34;63.36;98831.70;1757913;81;21128;-64
2021/03/08 01:01:10;;;;;;;9.65;7.60;;;;;;;1.27;63.50;98827.09;1758010;81;21529;-64
2021/03/08 01:03:38;;;;;;;10.50;7.95;;;;;;;1.20;63.63;98830.59;1757987;81;21073;-64
2021/03/08 01:06:06;;;;;;;13.70;8.63;;;;;;;1.10;63.84;98822.64;1758024;81;21081;-64
2021/03/08 01:08:35;;;;;;;11.48;8.13;;;;;;;1.00;64.13;98823.61;1734983;81;21121;-63
2021/03/08 01:11:04;;;;;;;11.18;8.30;;;;;;;0.92;64.34;98820.33;1757965;81;21172;-63
2021/03/08 01:13:34;;;;;;;10.40;8.43;;;;;;;0.81;64.61;98815.33;1757609;81;21204;-63
2021/03/08 01:16:02;;;;;;;9.45;7.67;;;;;;;0.72;64.84;98814.62;1757959;81;21164;-63
2021/03/08 01:18:29;;;;;;;12.18;8.18;;;;;;;0.61;65.08;98813.45;1758002;81;21057;-63
2021/03/08 01:20:57;;;;;;;11.45;7.95;;;;;;;0.51;65.38;98812.73;1758003;81;21215;-63
2021/03/08 01:23:26;;;;;;;10.48;7.95;;;;;;;0.42;65.59;98809.41;1757963;81;21116;-63
2021/03/08 01:25:54;;;;;;;12.00;8.40;;;;;;;0.32;65.83;98802.30;1757948;81;21144;-63
2021/03/08 01:28:22;;;;;;;14.35;8.35;;;;;;;0.26;66.10;98804.91;1757993;81;21139;-63
2021/03/08 01:30:50;;;;;;;11.00;7.90;;;;;;;0.24;66.31;98805.36;1757992;81;21072;-63
2021/03/08 01:33:18;;;;;;;10.78;7.37;;;;;;;0.19;66.31;98796.48;1757968;81;21223;-63
2021/03/08 01:35:46;;;;;;;8.93;7.30;;;;;;;0.17;66.46;98802.04;1757929;81;21510;-63
2021/03/08 01:38:14;;;;;;;9.65;7.25;;;;;;;0.13;66.51;98799.52;1757994;81;21549;-64
2021/03/08 01:40:41;;;;;;;9.90;7.65;;;;;;;0.09;66.60;98801.69;1758117;81;21168;-64
2021/03/08 01:43:10;;;;;;;10.65;8.25;;;;;;;0.06;66.64;98792.33;1758163;81;21078;-63
2021/03/08 01:45:38;;;;;;;9.65;7.75;;;;;;;0.05;66.77;98798.73;1758010;81;21438;-64
2021/03/08 01:48:08;;;;;;;10.82;7.58;;;;;;;0.04;66.92;98798.32;1758209;81;21076;-63
2021/03/08 01:50:40;;;;;;;11.33;7.90;;;;;;;0.06;66.92;98794.89;1758218;81;21144;-63
2021/03/08 01:53:13;;;;;;;9.53;8.23;;;;;;;0.06;66.88;98792.77;1757699;81;21497;-64
2021/03/08 01:55:41;;;;;;;13.10;8.63;;;;;;;0.05;66.90;98796.18;1758293;81;21077;-63
2021/03/08 01:58:09;;;;;;;11.85;7.62;;;;;;;0.02;66.94;98793.66;1734657;81;21290;-63
2021/03/08 02:00:37;;;;;;;10.55;7.97;;;;;;;-0.04;66.98;98795.86;1758105;81;21077;-63
2021/03/08 02:03:24;;;;;;;12.18;8.65;;;;;;;-0.06;67.06;98801.42;1758108;81;21140;-63
2021/03/08 02:05:51;;;;;;;9.98;7.85;;;;;;;-0.08;67.14;98800.16;1758124;81;21101;-63
2021/03/08 02:08:21;;;;;;;10.58;8.13;;;;;;;-0.10;67.15;98797.19;1758163;81;21057;-63
2021/03/08 02:10:49;;;;;;;24.32;8.23;;;;;;;-0.13;67.20;98790.39;1758137;81;21393;-63
2021/03/08 02:14:12;;;;;;;12.75;7.72;;;;;;;-0.14;67.26;98788.70;1758042;81;21513;-63
2021/03/08 02:16:57;;;;;;;12.18;8.05;;;;;;;-0.11;67.21;98792.51;1757955;81;21509;-63
2021/03/08 02:20:22;;;;;;;11.22;8.00;;;;;;;-0.15;67.17;98795.95;1742604;81;21124;-63
2021/03/08 02:23:11;;;;;;;11.90;7.65;;;;;;;-0.19;67.21;98793.00;1758143;81;21049;-63
2021/03/08 02:26:01;;;;;;;10.90;8.08;;;;;;;-0.23;67.19;98790.08;1758174;81;21369;-62
2021/03/08 02:28:49;;;;;;;18.35;9.15;;;;;;;-0.24;67.25;98790.94;1758040;81;21108;-64
2021/03/08 02:31:19;;;;;;;12.00;8.18;;;;;;;-0.20;67.28;98784.09;1758230;81;21485;-63
2021/03/08 02:34:10;;;;;;;11.25;8.48;;;;;;;-0.11;67.15;98785.27;1758223;81;21481;-63
2021/03/08 02:36:42;;;;;;;12.88;7.58;;;;;;;-0.06;66.92;98783.52;1757771;81;21505;-64
2021/03/08 02:39:14;;;;;;;10.72;7.85;;;;;;;-0.01;66.81;98783.90;1758427;81;21356;-64
2021/03/08 02:41:42;;;;;;;11.77;7.80;;;;;;;0.03;66.67;98788.52;1758331;81;21641;-64
2021/03/08 02:44:13;;;;;;;9.73;7.12;;;;;;;0.08;66.60;98784.65;1734636;81;21084;-64
2021/03/08 02:46:42;;;;;;;11.28;7.53;;;;;;;0.13;66.44;98785.45;1757968;81;21065;-63
2021/03/08 02:49:17;;;;;;;9.63;7.40;;;;;;;0.17;66.32;98784.57;1758065;81;21065;-63
2021/03/08 02:51:58;;;;;;;12.85;8.48;;;;;;;0.21;66.21;98781.09;1758180;81;22297;-63
2021/03/08 02:54:30;;;;;;;10.78;7.42;;;;;;;0.23;66.13;98787.03;1740029;81;21592;-63
2021/03/08 02:57:03;;;;;;;19.52;9.65;;;;;;;0.27;66.06;98786.14;1758090;80;21498;-63
2021/03/08 02:59:42;;;;;;;9.48;7.83;;;;;;;0.30;66.05;98778.01;1758051;81;21073;-63
2021/03/08 03:02:10;;;;;;;15.50;8.68;;;;;;;0.36;65.88;98781.37;1758121;81;21060;-63
2021/03/08 03:04:39;;;;;;;13.48;7.87;;;;;;;0.41;65.82;98783.42;1758057;81;23489;-63
2021/03/08 03:07:08;;;;;;;14.00;8.15;;;;;;;0.42;65.69;98782.13;1758099;81;21092;-63
2021/03/08 03:09:36;;;;;;;12.15;8.43;;;;;;;0.43;65.71;98777.42;1758075;81;21053;-64
2021/03/08 03:12:05;;;;;;;12.28;8.53;;;;;;;0.43;65.76;98781.69;1734492;81;21607;-65
2021/03/08 03:14:33;;;;;;;10.68;7.75;;;;;;;0.43;65.81;98777.42;1734867;81;21069;-64
2021/03/08 03:17:08;;;;;;;16.32;9.25;;;;;;;0.44;65.88;98783.39;1758067;81;22090;-64
2021/03/08 03:19:39;;;;;;;11.03;8.25;;;;;;;0.43;66.01;98782.97;1734579;81;21124;-64
2021/03/08 03:22:07;;;;;;;13.10;7.83;;;;;;;0.44;66.11;98780.39;1758095;81;21077;-64
2021/03/08 03:24:35;;;;;;;12.23;7.58;;;;;;;0.44;66.00;98783.39;1758039;81;21128;-64
2021/03/08 03:27:04;;;;;;;14.20;8.40;;;;;;;0.42;66.13;98777.00;1758063;81;21085;-64
2021/03/08 03:29:36;;;;;;;9.85;7.97;;;;;;;0.45;66.14;98779.97;1734626;81;21384;-64
2021/03/08 03:32:05;;;;;;;11.05;8.28;;;;;;;0.44;66.20;98771.44;1758026;81;21132;-64
2021/03/08 03:34:33;;;;;;;12.18;8.40;;;;;;;0.44;66.11;98774.00;1758030;81;21168;-64
2021/03/08 03:37:01;;;;;;;10.63;8.15;;;;;;;0.47;66.13;98775.25;1758100;81;21089;-65
2021/03/08 03:39:30;;;;;;;12.13;8.20;;;;;;;0.49;66.21;98772.67;1758076;81;21169;-64
2021/03/08 03:41:58;;;;;;;9.85;8.20;;;;;;;0.50;66.08;98771.81;1758048;81;21210;-64
2021/03/08 03:44:27;;;;;;;10.63;7.78;;;;;;;0.53;66.02;98767.94;1688223;81;21493;-65
2021/03/08 03:46:56;;;;;;;12.30;8.05;;;;;;;0.54;65.96;98766.64;1756510;81;21553;-64
2021/03/08 03:49:24;;;;;;;10.72;7.70;;;;;;;0.57;65.88;98763.20;1754269;81;21148;-64
2021/03/08 03:51:52;;;;;;;11.12;7.35;;;;;;;0.58;65.81;98767.02;1754267;81;21180;-64
2021/03/08 03:54:20;;;;;;;11.40;7.90;;;;;;;0.62;65.69;98767.80;1754230;81;21509;-64
2021/03/08 03:56:57;;;;;;;13.25;8.23;;;;;;;0.63;65.54;98767.79;1726850;81;21093;-64
2021/03/08 03:59:28;;;;;;;10.23;7.75;;;;;;;0.64;65.55;98764.37;1728050;81;21112;-64
2021/03/08 04:02:01;;;;;;;14.25;7.95;;;;;;;0.67;65.40;98767.32;1754291;81;21133;-64
2021/03/08 04:04:44;;;;;;;8.43;7.60;;;;;;;0.71;65.36;98771.54;1754324;81;21069;-64
2021/03/08 04:07:13;;;;;;;12.82;8.50;;;;;;;0.74;65.21;98766.39;1754553;81;21218;-64
2021/03/08 04:09:41;;;;;;;13.62;8.38;;;;;;;0.74;65.00;98763.83;1703691;81;21494;-64
2021/03/08 04:12:09;;;;;;;10.20;7.95;;;;;;;0.78;64.99;98768.48;1668690;81;21053;-64
2021/03/08 04:14:38;;;;;;;13.53;8.83;;;;;;;0.78;64.95;98769.76;1754167;81;21065;-64
2021/03/08 04:17:06;;;;;;;11.50;8.08;;;;;;;0.79;64.91;98755.66;1754296;81;21137;-64
2021/03/08 04:19:34;;;;;;;20.68;8.50;;;;;;;0.81;64.86;98766.70;1754243;81;23431;-64
2021/03/08 04:22:04;;;;;;;13.00;7.37;;;;;;;0.80;64.86;98761.16;1726799;81;21152;-64
2021/03/08 04:24:32;;;;;;;14.75;8.30;;;;;;;0.79;64.93;98762.49;1754346;81;21159;-64
2021/03/08 04:27:05;;;;;;;10.32;7.22;;;;;;;0.78;65.06;98758.23;1754214;81;21053;-64
2021/03/08 04:29:38;;;;;;;18.25;8.93;;;;;;;0.78;65.06;98760.80;1754397;81;21101;-64
2021/03/08 04:32:10;;;;;;;12.33;8.75;;;;;;;0.76;65.11;98760.81;1752196;81;21466;-63
2021/03/08 04:34:38;;;;;;;10.23;8.18;;;;;;;0.76;65.18;98768.50;1754170;81;21073;-63
2021/03/08 04:37:05;;;;;;;14.05;9.10;;;;;;;0.76;65.20;98767.65;1726835;81;21117;-63
2021/03/08 04:39:37;;;;;;;15.80;8.75;;;;;;;0.77;65.29;98767.63;1754171;81;21120;-64
2021/03/08 04:42:08;;;;;;;11.37;8.63;;;;;;;0.80;65.31;98770.12;1727722;81;21089;-63
2021/03/08 04:44:38;;;;;;;12.15;8.65;;;;;;;0.82;65.34;98765.83;1754248;81;21997;-63
2021/03/08 04:47:07;;;;;;;14.00;8.10;;;;;;;0.82;65.31;98764.98;1703596;81;21061;-63
2021/03/08 04:49:35;;;;;;;12.63;9.25;;;;;;;0.81;65.41;98769.25;1754269;81;21149;-63
2021/03/08 04:52:03;;;;;;;11.12;8.48;;;;;;;0.84;65.45;98768.38;1754201;81;21153;-63
2021/03/08 04:54:31;;;;;;;14.80;8.48;;;;;;;0.88;65.51;98771.31;1754187;81;21695;-63
2021/03/08 04:56:58;;;;;;;39.33;10.68;;;;;;;0.92;65.51;98773.81;1754180;80;21434;-63
2021/03/08 04:59:26;;;;;;;11.50;8.50;;;;;;;0.93;65.52;98771.67;1754191;81;21132;-62
2021/03/08 05:01:54;;;;;;;16.20;9.43;;;;;;;0.97;65.51;98772.47;1754212;81;21145;-63
2021/03/08 05:04:22;;;;;;;15.48;9.03;;;;;;;0.97;65.53;98772.05;1754224;81;21238;-65
2021/03/08 05:06:49;;;;;;;23.50;9.83;;;;;;;0.98;65.55;98768.62;1754211;81;21518;-63
2021/03/08 05:09:17;;;;;;;15.58;9.45;;;;;;;1.03;65.47;98774.49;1754240;81;21393;-64
2021/03/08 05:11:45;;;;;;;17.07;9.10;;;;;;;1.07;65.42;98772.73;1702883;81;21132;-63
2021/03/08 05:14:18;;;;;;;11.18;8.90;;;;;;;1.11;65.38;98778.23;1726837;81;21568;-63
2021/03/08 05:16:47;;;;;;;17.55;10.38;;;;;;;1.15;65.38;98781.60;1754452;81;21568;-64
2021/03/08 05:19:15;;;;;;;14.10;9.30;;;;;;;1.16;65.40;98763.66;1754214;81;21136;-62
2021/03/08 05:21:43;;;;;;;13.90;9.98;;;;;;;1.20;65.35;98769.58;1754212;81;22394;-63
2021/03/08 05:24:11;;;;;;;16.20;11.18;;;;;;;1.21;65.39;98772.09;1754162;81;21101;-64
2021/03/08 05:26:39;;;;;;;27.48;11.95;;;;;;;1.22;65.45;98770.38;1754304;81;21061;-64
2021/03/08 05:29:07;;;;;;;16.85;9.75;;;;;;;1.25;65.51;98776.30;1754216;81;21065;-64
2021/03/08 05:31:40;;;;;;;17.05;11.28;;;;;;;1.31;65.48;98774.94;1754318;81;21128;-64
2021/03/08 05:34:09;;;;;;;18.37;10.03;;;;;;;1.36;65.52;98777.00;1754572;81;22347;-64
2021/03/08 05:36:41;;;;;;;13.43;10.68;;;;;;;1.43;65.52;98779.45;1727084;81;21448;-64
2021/03/08 05:39:11;;;;;;;18.80;9.70;;;;;;;1.46;65.46;98777.69;1754592;81;21474;-64
2021/03/08 05:42:04;;;;;;;34.75;9.93;;;;;;;1.46;65.51;98778.12;1754217;81;21493;-64
2021/03/08 05:44:32;;;;;;;;;;;;;;;1.46;65.53;98777.69;1756858;81;21089;-63
2021/03/08 05:47:20;;;;;;;13.18;9.30;;;;;;;1.51;65.62;98777.19;1752831;81;21152;-64
2021/03/08 05:50:12;;;;;;;13.08;9.45;;;;;;;1.54;65.55;98792.52;1744601;82;21077;-63
2021/03/08 05:52:57;;;;;;;14.55;10.32;;;;;;;1.58;65.54;98793.32;1745125;82;21069;-63
2021/03/08 05:55:58;;;;;;;43.17;12.65;;;;;;;1.59;65.59;98791.17;1714397;83;21175;-63
2021/03/08 05:58:46;;;;;;;18.80;11.05;;;;;;;1.61;65.55;98799.22;1714463;82;21131;-64
2021/03/08 06:01:19;;;;;;;18.57;10.03;;;;;;;1.63;65.59;98792.36;1714483;83;23570;-63
2021/03/08 06:04:09;;;;;;;12.70;9.08;;;;;;;1.67;65.52;98795.28;1714095;82;21536;-63
2021/03/08 06:07:01;;;;;;;13.53;9.23;;;;;;;1.73;65.47;98795.63;1713805;82;21116;-64
2021/03/08 06:09:29;;;;;;;14.13;9.43;;;;;;;1.77;65.45;98799.84;1714214;82;21132;-64
2021/03/08 06:12:07;;;;;;;11.38;9.30;;;;;;;1.85;65.20;98798.41;1714448;83;21075;-64
2021/03/08 06:14:43;;;;;;;13.75;10.10;;;;;;;1.88;64.90;98803.48;1714502;83;21357;-65
2021/03/08 06:17:14;;;;;;;14.28;10.05;;;;;;;1.88;65.00;98803.05;1714414;83;21100;-64
2021/03/08 06:19:46;;;;;;;25.48;10.98;;;;;;;1.91;65.12;98809.41;1714406;82;21148;-64
2021/03/08 06:22:15;;;;;;;13.18;10.03;;;;;;;1.94;65.05;98813.21;1714452;83;21171;-65
2021/03/08 06:24:44;;;;;;;12.55;9.95;;;;;;;1.98;65.20;98805.88;1714536;82;21615;-64
2021/03/08 06:27:14;;;;;;;19.90;11.12;;;;;;;2.03;65.23;98812.19;1714654;82;21284;-64
2021/03/08 06:29:44;;;;;;;12.10;9.25;;;;;;;2.05;65.35;98817.70;1714583;82;21104;-64
2021/03/08 06:32:12;;;;;;;12.98;10.70;;;;;;;2.12;65.42;98815.04;1714620;82;21517;-64
2021/03/08 06:34:40;;;;;;;11.55;10.32;;;;;;;2.16;65.56;98812.40;1714525;83;21084;-64
2021/03/08 06:37:10;;;;;;;17.55;11.25;;;;;;;2.23;65.60;98814.39;1714654;83;21099;-63
2021/03/08 06:39:45;;;;;;;14.58;11.40;;;;;;;2.29;65.58;98818.14;1714573;83;21444;-63
2021/03/08 06:42:17;;;;;;;16.42;11.00;;;;;;;2.36;65.58;98822.30;1714505;83;21621;-63
2021/03/08 06:44:46;;;;;;;16.30;11.80;;;;;;;2.37;65.63;98823.98;1714509;83;21177;-64
2021/03/08 06:47:14;;;;;;;14.47;12.63;;;;;;;2.38;65.84;98820.55;1714153;83;21104;-65
2021/03/08 06:49:42;;;;;;;14.95;11.60;;;;;;;2.39;66.01;98814.11;1711500;83;21157;-65
2021/03/08 06:52:15;;;;;;;13.85;9.95;;;;;;;2.45;66.15;98815.69;1744450;81;21438;-64
2021/03/08 06:54:44;;;;;;;15.13;12.15;;;;;;;2.50;66.18;98810.03;1744519;82;21191;-64
2021/03/08 06:57:26;;;;;;;17.23;13.13;;;;;;;2.57;66.18;98806.91;1711413;83;21212;-65
2021/03/08 07:00:09;;;;;;;13.20;11.22;;;;;;;2.62;66.06;98807.64;1711475;83;21144;-63
2021/03/08 07:02:48;;;;;;;15.08;12.05;;;;;;;2.67;66.24;98810.53;1744535;82;21497;-64
2021/03/08 07:05:26;;;;;;;15.78;12.90;;;;;;;2.76;66.18;98810.80;1744576;82;22328;-63
2021/03/08 07:07:58;;;;;;;17.00;12.33;;;;;;;2.86;66.21;98812.28;1711390;83;21184;-65
2021/03/08 07:10:36;;;;;;;13.93;11.18;;;;;;;3.00;66.04;98805.13;1711433;83;21108;-64
2021/03/08 07:13:10;;;;;;;18.10;13.35;;;;;;;3.13;65.66;98801.02;1744454;82;21155;-64
2021/03/08 07:16:00;;;;;;;15.80;12.65;;;;;;;3.23;65.60;98808.47;1744469;81;21086;-64
2021/03/08 07:18:29;;;;;;;19.35;13.28;;;;;;;3.32;65.46;98808.72;1711556;83;21398;-65
2021/03/08 07:21:21;;;;;;;18.23;12.30;;;;;;;3.43;65.04;98810.15;1711480;83;21100;-64
2021/03/08 07:23:50;;;;;;;14.68;12.78;;;;;;;3.39;65.01;98807.27;1711515;83;21100;-65
2021/03/08 07:26:21;;;;;;;40.45;13.50;;;;;;;3.33;65.05;98810.41;1744538;82;21497;-64
2021/03/08 07:29:10;;;;;;;19.05;12.05;;;;;;;3.34;65.56;98808.25;1744535;81;21093;-65
2021/03/08 07:31:45;;;;;;;14.45;12.95;;;;;;;3.47;65.34;98812.22;1744574;82;22250;-64
2021/03/08 07:34:15;;;;;;;15.03;11.95;;;;;;;3.59;65.17;98811.94;1742802;81;21172;-65
2021/03/08 07:37:01;;;;;;;14.38;12.63;;;;;;;3.71;65.13;98810.35;1744452;82;21612;-64
2021/03/08 07:39:29;;;;;;;13.43;12.05;;;;;;;3.78;65.35;98812.34;1744285;81;21077;-65
2021/03/08 07:42:00;;;;;;;14.07;12.53;;;;;;;3.78;65.56;98809.77;1711424;83;21080;-64
2021/03/08 07:44:29;;;;;;;22.22;14.95;;;;;;;3.71;65.81;98816.78;1711471;83;21401;-65
2021/03/08 07:47:06;;;;;;;14.87;13.15;;;;;;;3.66;66.40;98817.77;1744360;82;21085;-64
2021/03/08 07:49:37;;;;;;;15.23;13.60;;;;;;;3.71;66.47;98812.08;1749823;81;21173;-64
2021/03/08 07:52:11;;;;;;;13.45;12.05;;;;;;;3.70;66.69;98819.39;1754353;81;21156;-63
2021/03/08 07:55:00;;;;;;;12.98;11.78;;;;;;;3.70;66.75;98818.95;1754282;81;21494;-63
2021/03/08 07:57:30;;;;;;;14.95;12.82;;;;;;;3.68;67.08;98817.29;1754298;80;22289;-64
2021/03/08 07:59:59;;;;;;;17.37;14.28;;;;;;;3.69;67.70;98818.55;1754332;81;21629;-64
2021/03/08 08:02:27;;;;;;;16.85;13.93;;;;;;;3.68;67.92;98812.99;1754271;81;21151;-64
2021/03/08 08:04:57;;;;;;;18.65;13.70;;;;;;;3.69;68.59;98821.11;1753238;81;21073;-65
2021/03/08 08:07:26;;;;;;;15.90;14.30;;;;;;;3.73;68.87;98825.75;1754256;81;21156;-65
2021/03/08 08:09:54;;;;;;;17.10;13.98;;;;;;;3.79;68.95;98825.17;1754239;81;21393;-64
2021/03/08 08:12:32;;;;;;;14.13;12.70;;;;;;;3.81;69.20;98825.10;1754176;81;21157;-65
2021/03/08 08:15:01;;;;;;;15.03;13.43;;;;;;;3.81;69.46;98823.38;1754331;81;21084;-64
2021/03/08 08:17:30;;;;;;;15.63;13.90;;;;;;;3.74;69.73;98824.42;1754241;81;21101;-65
2021/03/08 08:19:58;;;;;;;16.50;14.78;;;;;;;3.67;70.50;98820.30;1727058;81;21081;-64
2021/03/08 08:22:25;;;;;;;15.58;13.70;;;;;;;3.66;70.90;98825.48;1726485;81;21396;-64
2021/03/08 08:24:55;;;;;;;16.05;14.33;;;;;;;3.65;71.29;98825.08;1754133;81;21145;-64
2021/03/08 08:27:24;;;;;;;16.27;13.62;;;;;;;3.62;71.64;98830.28;1754243;81;21120;-64
2021/03/08 08:29:52;;;;;;;17.17;12.65;;;;;;;3.62;71.88;98825.98;1754232;81;21057;-67
2021/03/08 08:32:19;;;;;;;14.78;12.93;;;;;;;3.71;72.04;98821.92;1754255;81;21065;-64
2021/03/08 08:34:50;;;;;;;16.40;14.23;;;;;;;3.77;71.59;98817.92;1754209;81;21449;-65
2021/03/08 08:37:25;;;;;;;15.78;13.83;;;;;;;3.74;71.52;98813.30;1754202;81;21085;-66
2021/03/08 08:39:58;;;;;;;14.93;13.25;;;;;;;3.69;71.38;98815.97;1754366;81;21621;-65
2021/03/08 08:42:28;;;;;;;;;;;;;;;3.60;71.33;98817.91;1756947;81;21542;-65
2021/03/08 08:44:57;;;;;;;18.25;15.05;;;;;;;3.45;71.53;98817.83;1754351;81;20236;-65
2021/03/08 08:47:35;;;;;;;16.93;14.80;;;;;;;3.32;72.10;98819.84;1754284;81;22138;-65
2021/03/08 08:50:09;;;;;;;16.52;14.75;;;;;;;3.26;72.18;98813.98;1757714;81;21089;-65
2021/03/08 08:52:54;;;;;;;21.07;15.10;;;;;;;3.19;72.21;98817.16;1758107;81;21482;-64
2021/03/08 08:55:39;;;;;;;17.05;13.75;;;;;;;3.12;72.40;98818.16;1758048;81;21486;-65
2021/03/08 08:58:28;;;;;;;14.38;12.98;;;;;;;3.05;72.51;98816.16;1757937;80;21072;-65
2021/03/08 09:01:16;;;;;;;16.40;14.47;;;;;;;3.03;72.64;98821.77;1757998;81;21382;-65
2021/03/08 09:03:58;;;;;;;17.00;14.63;;;;;;;3.00;72.57;98815.84;1757932;81;21140;-64
2021/03/08 09:06:51;;;;;;;19.57;16.07;;;;;;;2.89;72.72;98816.08;1758208;81;21177;-64
2021/03/08 09:09:24;;;;;;;19.55;16.45;;;;;;;2.84;73.14;98815.76;1757607;81;38626;-63
2021/03/08 09:12:02;;;;;;;9.33;7.72;;;;;;;2.75;73.21;98841.20;1758025;81;21069;-63
2021/03/08 09:14:47;;;;;;;5.22;4.58;;;;;;;2.60;71.07;98859.02;1757951;81;21366;-63
2021/03/08 09:17:29;;;;;;;6.50;4.45;;;;;;;2.34;69.62;98863.81;1757495;81;21116;-64
2021/03/08 09:20:04;;;;;;;5.20;4.58;;;;;;;2.13;70.01;98869.32;1731493;81;21065;-64
2021/03/08 09:22:44;;;;;;;5.12;3.77;;;;;;;1.92;71.03;98866.67;1757982;81;21152;-63
2021/03/08 09:25:15;;;;;;;5.45;2.90;;;;;;;1.75;70.63;98872.08;1758003;81;21089;-64
2021/03/08 09:27:49;;;;;;;6.50;3.08;;;;;;;1.54;70.11;98878.38;1758131;81;21373;-64
2021/03/08 09:30:23;;;;;;;5.22;2.87;;;;;;;1.38;70.21;98888.00;1758064;81;21110;-63
2021/03/08 09:32:55;;;;;;;6.17;3.33;;;;;;;1.25;70.56;98886.89;1758222;81;21050;-63
2021/03/08 09:35:26;;;;;;;2.85;2.22;;;;;;;1.17;71.03;98889.57;1758065;81;21195;-64
2021/03/08 09:37:56;;;;;;;5.20;3.05;;;;;;;1.13;71.21;98884.07;1757907;81;21105;-64
2021/03/08 09:40:29;;;;;;;5.33;3.98;;;;;;;1.13;71.40;98889.63;1757952;81;21436;-64
2021/03/08 09:42:57;;;;;;;3.33;2.40;;;;;;;1.13;71.34;98890.47;1757914;81;21073;-63
2021/03/08 09:45:31;;;;;;;4.70;3.15;;;;;;;1.14;70.95;98893.88;1757947;81;21582;-64
2021/03/08 09:48:00;;;;;;;7.55;4.50;;;;;;;1.14;70.25;98894.73;1757916;81;21080;-62
2021/03/08 09:50:36;;;;;;;6.80;4.50;;;;;;;1.12;70.49;98896.46;1734740;81;21081;-63
2021/03/08 09:53:04;;;;;;;8.40;5.10;;;;;;;1.15;70.00;98893.86;1757971;81;21226;-63
2021/03/08 09:55:35;;;;;;;13.18;8.33;;;;;;;1.14;70.07;98901.56;1757937;81;21607;-64
2021/03/08 09:58:15;;;;;;;7.40;5.05;;;;;;;1.16;69.97;98909.65;1757894;80;21203;-64
2021/03/08 10:00:47;;;;;;;6.62;4.05;;;;;;;1.28;69.15;98909.48;1758118;81;21156;-64
2021/03/08 10:03:15;;;;;;;5.83;2.55;;;;;;;1.45;67.89;98912.24;1758148;81;21167;-63
2021/03/08 10:05:48;;;;;;;3.77;2.25;;;;;;;1.59;66.01;98923.17;1758142;81;21264;-63
2021/03/08 10:08:20;;;;;;;2.60;2.17;;;;;;;1.64;65.36;98918.80;1758045;81;21164;-65
2021/03/08 10:10:51;;;;;;;5.10;2.33;;;;;;;1.70;65.45;98925.98;1758162;81;21490;-64
2021/03/08 10:13:20;;;;;;;3.12;2.02;;;;;;;1.82;65.44;98922.38;1758130;81;21057;-64
2021/03/08 10:15:56;;;;;;;4.40;2.70;;;;;;;1.90;63.31;98920.98;1758099;81;21100;-64
2021/03/08 10:18:31;;;;;;;5.67;1.77;;;;;;;1.85;62.18;98926.17;1758108;81;21376;-63
2021/03/08 10:21:00;;;;;;;4.85;2.65;;;;;;;1.78;62.59;98919.47;1758057;81;21076;-64
2021/03/08 10:23:34;;;;;;;7.50;3.65;;;;;;;1.80;63.35;98922.83;1758037;81;21080;-64
2021/03/08 10:26:11;;;;;;;2.87;2.00;;;;;;;1.81;63.81;98917.27;1758119;81;21081;-65
2021/03/08 10:28:43;;;;;;;2.37;1.15;;;;;;;1.88;64.62;98913.75;1758220;81;21077;-65
2021/03/08 10:31:28;;;;;;;1.85;1.30;;;;;;;1.99;64.54;98906.75;1758261;81;21374;-63
2021/03/08 10:34:03;;;;;;;1.62;0.80;;;;;;;2.13;64.65;98907.36;1758098;81;21564;-64
2021/03/08 10:36:37;;;;;;;2.10;0.93;;;;;;;2.21;64.77;98900.80;1758167;81;21073;-65
2021/03/08 10:39:11;;;;;;;1.70;1.30;;;;;;;2.35;64.97;98899.72;1758085;81;21129;-63
2021/03/08 10:41:39;;;;;;;2.00;1.25;;;;;;;2.47;64.55;98892.22;1758130;81;21073;-64
2021/03/08 10:44:07;;;;;;;4.40;2.33;;;;;;;2.62;64.23;98884.23;1734637;81;21568;-65
2021/03/08 10:46:37;;;;;;;6.00;3.90;;;;;;;2.73;62.85;98893.03;1758013;81;21116;-63
2021/03/08 10:49:08;;;;;;;7.33;4.78;;;;;;;2.70;62.52;98887.95;1756809;80;21152;-64
2021/03/08 10:51:39;;;;;;;9.30;6.78;;;;;;;2.73;62.32;98891.75;1754319;81;21117;-63
2021/03/08 10:54:10;;;;;;;12.33;7.33;;;;;;;2.74;62.06;98896.01;1754451;81;21557;-63
2021/03/08 10:56:42;;;;;;;9.10;7.17;;;;;;;2.69;61.46;98897.37;1754229;80;21211;-63
2021/03/08 10:59:25;;;;;;;4.40;2.98;;;;;;;2.64;61.24;98901.73;1754275;81;21144;-64
2021/03/08 11:02:03;;;;;;;3.42;1.82;;;;;;;2.58;59.92;98903.59;1754663;81;21597;-64
2021/03/08 11:04:33;;;;;;;5.67;1.45;;;;;;;2.58;60.80;98903.59;1754325;81;21168;-64
2021/03/08 11:07:01;;;;;;;2.35;1.20;;;;;;;2.64;61.66;98901.73;1754274;81;21065;-65
2021/03/08 11:09:35;;;;;;;2.22;1.47;;;;;;;2.69;61.63;98897.37;1727213;81;21132;-65
2021/03/08 11:12:04;;;;;;;4.83;2.77;;;;;;;2.71;61.10;98890.92;1753922;81;21191;-66
2021/03/08 11:14:56;;;;;;;4.62;2.37;;;;;;;2.73;59.96;98892.59;1754427;81;21592;-64
2021/03/08 11:17:33;;;;;;;5.10;3.00;;;;;;;2.76;57.99;98900.68;1754293;81;21120;-64
2021/03/08 11:20:21;;;;;;;3.33;1.77;;;;;;;2.73;58.08;98891.75;1754343;81;21116;-63
2021/03/08 11:23:01;;;;;;;3.33;1.80;;;;;;;2.78;57.47;98892.52;1754348;81;21158;-63
2021/03/08 11:25:42;;;;;;;2.30;1.30;;;;;;;2.86;57.89;98888.48;1754320;81;21093;-63
2021/03/08 11:28:14;;;;;;;3.27;2.12;;;;;;;2.96;58.05;98883.16;1754342;81;21259;-64
2021/03/08 11:30:49;;;;;;;4.53;2.58;;;;;;;3.02;56.46;98876.59;1754482;81;21452;-65
2021/03/08 11:33:18;;;;;;;4.60;1.98;;;;;;;2.99;56.67;98874.55;1754297;81;21073;-64
2021/03/08 11:35:51;;;;;;;4.20;1.98;;;;;;;2.92;58.14;98875.09;1754266;81;21384;-64
2021/03/08 11:38:25;;;;;;;2.15;1.30;;;;;;;2.91;57.57;98884.11;1754578;81;21533;-64
2021/03/08 11:40:53;;;;;;;3.60;1.90;;;;;;;2.86;56.16;98885.92;1754236;81;21099;-63
2021/03/08 11:43:23;;;;;;;4.50;2.50;;;;;;;2.64;55.51;98890.19;1726860;81;21093;-64
2021/03/08 11:45:53;;;;;;;5.15;2.98;;;;;;;2.53;56.25;98888.70;1754307;81;21084;-64
2021/03/08 11:48:23;;;;;;;4.53;2.70;;;;;;;2.46;57.11;98887.11;1754318;81;21368;-65
2021/03/08 11:50:51;;;;;;;3.72;2.12;;;;;;;2.42;56.78;98894.86;1754181;81;21513;-65
2021/03/08 11:53:20;;;;;;;2.47;1.55;;;;;;;2.39;56.09;98891.53;1754289;81;21081;-63
2021/03/08 11:55:48;;;;;;;2.87;1.80;;;;;;;2.37;56.65;98891.55;1754234;81;21093;-64
2021/03/08 11:58:20;;;;;;;3.45;1.70;;;;;;;2.41;56.45;98885.47;1754245;80;21133;-63
2021/03/08 12:00:47;;;;;;;3.52;2.00;;;;;;;2.46;56.73;98890.53;1754295;81;21455;-63